Time;durP1;ratioP1;P1;durP2;ratioP2;P2;SDS_P1;SDS_P2;PMS_P1;PMS_P2;Temp;Humidity;BMP_temperature;BMP_pressure;BME280_temperature;BME280_humidity;BME280_pressure;Samples;Min_cycle;Max_cycle;Signal;HPM_P1;HPM_P2
2022/12/27 00:00:08;;;;;;;1.63;1.20;;;7.90;99.90;;;;;;5012911;28;20726;-79
2022/12/27 00:02:37;;;;;;;3.00;1.38;;;7.80;99.90;;;;;;5012106;28;20574;-80
2022/12/27 00:05:03;;;;;;;2.00;1.20;;;7.70;99.90;;;;;;5024726;28;20179;-78
2022/12/27 00:07:29;;;;;;;2.55;1.33;;;7.80;99.90;;;;;;5008385;28;20660;-79
2022/12/27 00:09:55;;;;;;;1.50;1.10;;;8.10;99.90;;;;;;5000110;28;20195;-78
2022/12/27 00:12:20;;;;;;;1.23;1.13;;;7.80;99.90;;;;;;5011285;28;20212;-79
2022/12/27 00:14:45;;;;;;;4.53;1.23;;;7.90;99.90;;;;;;5024775;28;20182;-78
2022/12/27 00:17:11;;;;;;;1.40;1.00;;;7.30;99.90;;;;;;5027654;28;20545;-80
2022/12/27 00:19:36;;;;;;;1.27;1.13;;;7.70;99.90;;;;;;5021588;28;20190;-79
2022/12/27 00:22:04;;;;;;;1.50;1.10;;;7.40;99.90;;;;;;5012685;28;20219;-79
2022/12/27 00:24:30;;;;;;;1.30;1.17;;;;;;;;;;5003033;28;20692;-78
2022/12/27 00:26:55;;;;;;;1.50;1.40;;;7.40;99.90;;;;;;5012243;28;20309;-79
2022/12/27 00:29:21;;;;;;;3.13;1.17;;;7.90;99.90;;;;;;5012334;28;20503;-79
2022/12/27 00:31:46;;;;;;;5.20;1.57;;;7.30;99.90;;;;;;5011435;28;20206;-78
2022/12/27 00:34:12;;;;;;;2.00;1.13;;;7.50;99.90;;;;;;5020899;28;20816;-78
2022/12/27 00:36:37;;;;;;;1.10;1.00;;;7.00;99.90;;;;;;5026442;28;20206;-78
2022/12/27 00:39:03;;;;;;;2.13;1.50;;;7.70;99.90;;;;;;5013199;28;20666;-79
2022/12/27 00:41:29;;;;;;;1.75;1.25;;;7.70;99.90;;;;;;5012034;28;20215;-78
2022/12/27 00:43:54;;;;;;;1.23;1.13;;;7.50;99.90;;;;;;5010929;28;20214;-79
2022/12/27 00:46:20;;;;;;;2.13;1.30;;;7.10;99.90;;;;;;5006946;28;20179;-78
2022/12/27 00:48:45;;;;;;;1.20;1.10;;;7.30;99.90;;;;;;5005191;28;20262;-78
2022/12/27 00:51:20;;;;;;;1.70;1.33;;;7.50;99.90;;;;;;5018467;28;20206;-78
2022/12/27 00:53:47;;;;;;;1.90;1.30;;;7.30;99.90;;;;;;5021116;28;20244;-78
2022/12/27 00:56:18;;;;;;;2.30;1.70;;;7.10;99.90;;;;;;5011725;28;20186;-78
2022/12/27 00:58:44;;;;;;;4.60;1.50;;;6.90;99.90;;;;;;5011680;28;20571;-79
2022/12/27 01:01:17;;;;;;;2.20;1.10;;;7.00;99.90;;;;;;5010561;28;20298;-78
2022/12/27 01:03:43;;;;;;;1.55;1.08;;;7.20;99.90;;;;;;5005652;28;20680;-79
2022/12/27 01:06:12;;;;;;;1.20;1.10;;;6.80;99.90;;;;;;5011559;28;20558;-78
2022/12/27 01:08:38;;;;;;;1.85;1.08;;;6.80;99.90;;;;;;5009067;28;20241;-78
2022/12/27 01:11:05;;;;;;;1.73;1.00;;;7.30;99.90;;;;;;5010992;28;20199;-78
2022/12/27 01:13:31;;;;;;;2.15;1.13;;;6.80;99.90;;;;;;5012372;28;20446;-78
2022/12/27 01:15:56;;;;;;;5.70;1.90;;;6.90;99.90;;;;;;5019445;28;20183;-78
2022/12/27 01:18:22;;;;;;;1.53;1.40;;;6.80;99.90;;;;;;5009029;28;20476;-78
2022/12/27 01:20:48;;;;;;;1.17;1.07;;;6.90;99.90;;;;;;5001822;28;20241;-79
2022/12/27 01:23:13;;;;;;;1.37;0.90;;;7.00;99.90;;;;;;5012159;28;20211;-79
2022/12/27 01:25:39;;;;;;;1.70;1.20;;;7.10;99.90;;;;;;5002521;28;20270;-79
2022/12/27 01:28:04;;;;;;;2.07;1.30;;;6.70;99.90;;;;;;5022506;28;20708;-79
2022/12/27 01:30:30;;;;;;;2.10;0.97;;;6.90;99.90;;;;;;5009704;28;20179;-78
2022/12/27 01:32:56;;;;;;;1.83;1.00;;;6.70;99.90;;;;;;5002644;28;20287;-78
2022/12/27 01:35:21;;;;;;;2.10;1.30;;;7.00;99.90;;;;;;5012536;28;20263;-79
2022/12/27 01:37:47;;;;;;;2.80;1.07;;;6.50;99.90;;;;;;5013861;28;20190;-79
2022/12/27 01:40:12;;;;;;;1.80;1.27;;;6.90;99.90;;;;;;5009912;28;20198;-78
2022/12/27 01:42:54;;;;;;;1.93;0.80;;;6.40;99.90;;;;;;5010971;28;20230;-79
2022/12/27 01:45:25;;;;;;;4.07;1.40;;;6.80;99.90;;;;;;5010112;28;20666;-78
2022/12/27 01:48:02;;;;;;;1.20;1.10;;;6.50;99.90;;;;;;5005254;28;20187;-78
2022/12/27 01:50:32;;;;;;;1.83;1.00;;;6.40;99.90;;;;;;5011975;28;20647;-79
2022/12/27 01:53:07;;;;;;;1.85;0.98;;;6.40;99.90;;;;;;5010810;28;20203;-78
2022/12/27 01:55:55;;;;;;;3.67;1.25;;;6.40;99.90;;;;;;5008278;28;20643;-78
2022/12/27 01:58:30;;;;;;;1.67;1.58;;;6.20;99.90;;;;;;5010839;28;20191;-78
2022/12/27 02:00:57;;;;;;;2.28;1.25;;;6.10;99.90;;;;;;5014013;28;20607;-78
2022/12/27 02:03:36;;;;;;;3.00;1.45;;;6.50;99.90;;;;;;5010505;28;20207;-78
2022/12/27 02:06:04;;;;;;;2.40;1.42;;;5.80;99.90;;;;;;5000693;28;20285;-78
2022/12/27 02:08:42;;;;;;;3.83;0.82;;;6.00;99.90;;;;;;5009753;28;20728;-77
2022/12/27 02:11:09;;;;;;;1.65;0.98;;;6.10;99.90;;;;;;5000616;28;20217;-78
2022/12/27 02:13:38;;;;;;;2.15;1.00;;;6.20;99.90;;;;;;5010662;28;20187;-78
2022/12/27 02:16:17;;;;;;;3.28;1.10;;;6.10;99.90;;;;;;5010463;28;20229;-78
2022/12/27 02:18:44;;;;;;;2.00;1.02;;;5.70;99.90;;;;;;5011371;28;20186;-78
2022/12/27 02:22:02;;;;;;;1.30;1.00;;;5.90;99.90;;;;;;5007374;28;20782;-78
2022/12/27 02:24:34;;;;;;;4.47;1.65;;;5.90;99.90;;;;;;4963224;28;20203;-78
2022/12/27 02:27:24;;;;;;;4.30;2.33;;;5.70;99.90;;;;;;5025023;28;20194;-78
2022/12/27 02:29:59;;;;;;;4.20;1.20;;;5.60;99.90;;;;;;5010665;28;20674;-78
2022/12/27 02:32:57;;;;;;;2.95;1.20;;;5.40;99.90;;;;;;5010662;28;20343;-79
2022/12/27 02:35:28;;;;;;;3.65;1.10;;;5.40;99.90;;;;;;5010855;28;20628;-78
2022/12/27 02:38:00;;;;;;;1.38;1.17;;;5.10;99.90;;;;;;5007446;28;20174;-77
2022/12/27 02:55:00;;;;;;;2.40;1.48;;;4.50;99.90;;;;;;5006747;28;20396;-79
2022/12/27 02:57:36;;;;;;;2.85;1.48;;;4.90;99.90;;;;;;5009947;28;20664;-79
2022/12/27 03:03:27;;;;;;;2.45;1.27;;;4.70;99.90;;;;;;5010172;28;20300;-79
2022/12/27 03:08:59;;;;;;;1.63;1.42;;;4.80;99.90;;;;;;5005900;28;20629;-79
2022/12/27 03:17:23;;;;;;;1.40;1.00;;;4.40;99.90;;;;;;5009254;28;20368;-78
2022/12/27 03:25:28;;;;;;;2.55;1.10;;;4.60;99.90;;;;;;5008049;28;20195;-79
2022/12/27 03:33:49;;;;;;;1.60;1.00;;;4.20;99.90;;;;;;5005785;28;20230;-78
2022/12/27 03:39:18;;;;;;;3.17;1.70;;;4.10;99.90;;;;;;5009335;28;20280;-78
2022/12/27 03:44:47;;;;;;;4.78;1.23;;;4.20;99.90;;;;;;5014280;28;20215;-79
2022/12/27 03:47:33;;;;;;;1.35;1.25;;;4.10;99.90;;;;;;5011109;28;20661;-78
2022/12/27 03:50:07;;;;;;;1.50;1.40;;;4.00;99.90;;;;;;5009350;28;20212;-78
2022/12/27 03:52:55;;;;;;;1.50;1.08;;;4.10;99.90;;;;;;5013055;28;20977;-78
2022/12/27 03:55:21;;;;;;;1.55;1.45;;;4.10;99.90;;;;;;5004314;28;20207;-78
2022/12/27 03:57:47;;;;;;;4.20;1.33;;;4.30;99.90;;;;;;5012771;28;20173;-79
2022/12/27 04:00:13;;;;;;;2.10;1.63;;;4.00;99.90;;;;;;5006835;28;20641;-78
2022/12/27 04:02:39;;;;;;;2.80;1.37;;;4.00;99.90;;;;;;5012861;28;20729;-78
2022/12/27 04:05:05;;;;;;;1.33;1.23;;;4.40;99.90;;;;;;5012816;28;20848;-79
2022/12/27 04:07:30;;;;;;;2.07;1.30;;;3.90;99.90;;;;;;5011495;28;20272;-78
2022/12/27 04:34:42;;;;;;;2.33;1.90;;;3.40;99.90;;;;;;5011435;28;20192;-78
2022/12/27 04:37:10;;;;;;;11.93;2.28;;;3.40;99.90;;;;;;5011933;28;20191;-79
2022/12/27 04:39:36;;;;;;;1.60;1.50;;;3.20;99.90;;;;;;5004781;28;20180;-78
2022/12/27 04:56:04;;;;;;;2.53;1.73;;;3.70;99.90;;;;;;5011709;28;20676;-78
2022/12/27 04:58:30;;;;;;;2.50;1.55;;;3.60;99.90;;;;;;5011893;28;20195;-78
2022/12/27 05:03:44;;;;;;;1.83;1.73;;;3.90;99.90;;;;;;5007864;28;20223;-79
2022/12/27 05:06:10;;;;;;;2.83;1.75;;;3.90;99.90;;;;;;5011857;28;20193;-80
2022/12/27 05:14:08;;;;;;;2.75;2.08;;;3.60;99.90;;;;;;5018455;28;20197;-78
2022/12/27 05:16:39;;;;;;;2.00;1.60;;;3.60;99.90;;;;;;5006386;28;20191;-79
2022/12/27 05:19:07;;;;;;;2.90;1.77;;;3.50;99.90;;;;;;5005007;28;20185;-78
2022/12/27 05:21:38;;;;;;;2.00;1.90;;;3.60;99.90;;;;;;5009954;28;20211;-78
2022/12/27 05:26:48;;;;;;;1.65;1.48;;;3.50;99.90;;;;;;5010348;28;20719;-78
2022/12/27 05:29:13;;;;;;;1.43;1.30;;;4.00;99.90;;;;;;5011245;28;20188;-78
2022/12/27 05:31:39;;;;;;;3.27;1.83;;;4.00;99.90;;;;;;5012014;28;20211;-78
2022/12/27 05:34:05;;;;;;;3.63;2.70;;;3.50;99.90;;;;;;5009271;28;20705;-78
2022/12/27 05:36:31;;;;;;;2.75;1.95;;;3.40;99.90;;;;;;5010984;28;20194;-79
2022/12/27 05:38:58;;;;;;;2.28;1.70;;;3.70;99.90;;;;;;5006248;28;20259;-78
2022/12/27 05:41:23;;;;;;;3.15;1.83;;;3.40;99.90;;;;;;5011062;28;20590;-78
2022/12/27 05:43:49;;;;;;;3.90;1.90;;;3.50;99.90;;;;;;5010823;28;20211;-79
2022/12/27 05:46:17;;;;;;;3.63;2.10;;;3.80;99.90;;;;;;5010276;28;20232;-79
2022/12/27 05:48:43;;;;;;;2.13;1.88;;;3.30;99.90;;;;;;5009733;28;20238;-79
2022/12/27 05:51:13;;;;;;;2.20;2.00;;;3.30;99.90;;;;;;5011178;28;20200;-79
2022/12/27 05:53:39;;;;;;;4.18;2.00;;;3.50;99.90;;;;;;5008030;28;20225;-79
2022/12/27 05:56:06;;;;;;;3.63;1.77;;;3.40;99.90;;;;;;5010268;28;20205;-79
2022/12/27 05:58:31;;;;;;;2.33;2.10;;;3.40;99.90;;;;;;5012557;28;20188;-79
2022/12/27 06:00:58;;;;;;;2.93;2.20;;;3.50;99.90;;;;;;5010140;28;20302;-79
2022/12/27 06:03:23;;;;;;;2.50;2.30;;;3.50;99.90;;;;;;5005941;28;20203;-78
2022/12/27 06:05:49;;;;;;;3.07;2.07;;;3.50;99.90;;;;;;5010673;28;20315;-79
2022/12/27 06:08:15;;;;;;;4.53;2.53;;;3.30;99.90;;;;;;5010514;28;20186;-80
2022/12/27 06:10:41;;;;;;;5.93;2.50;;;;;;;;;;5003974;28;20191;-80
2022/12/27 06:13:06;;;;;;;3.07;2.40;;;4.20;99.90;;;;;;5010732;28;20438;-79
2022/12/27 06:15:32;;;;;;;2.50;2.13;;;3.40;99.90;;;;;;5019566;28;20438;-79
2022/12/27 06:17:59;;;;;;;3.27;2.40;;;3.20;99.90;;;;;;5005844;28;20338;-79
2022/12/27 06:20:25;;;;;;;1.92;1.73;;;3.50;99.90;;;;;;5010634;28;20191;-80
2022/12/27 06:22:51;;;;;;;5.28;2.10;;;3.30;99.90;;;;;;5010381;28;20298;-78
2022/12/27 06:25:17;;;;;;;4.80;2.93;;;3.50;99.90;;;;;;5004641;28;20254;-79
2022/12/27 06:27:42;;;;;;;3.10;2.67;;;3.40;99.90;;;;;;5010390;28;20897;-79
2022/12/27 06:30:11;;;;;;;3.80;2.17;;;3.30;99.90;;;;;;5010264;28;20181;-80
2022/12/27 06:32:36;;;;;;;2.30;2.10;;;3.10;99.90;;;;;;5006237;28;20326;-78
2022/12/27 06:35:02;;;;;;;6.20;3.13;;;3.20;99.90;;;;;;5010742;28;20713;-79
2022/12/27 06:37:29;;;;;;;3.27;1.93;;;3.30;99.90;;;;;;5009996;28;20539;-79
2022/12/27 06:39:55;;;;;;;2.80;1.80;;;3.50;99.90;;;;;;5015625;28;20211;-79
2022/12/27 06:42:20;;;;;;;2.00;1.90;;;2.70;99.90;;;;;;5009146;28;20250;-80
2022/12/27 06:44:46;;;;;;;6.90;2.50;;;3.20;99.90;;;;;;5009095;28;20192;-79
2022/12/27 06:47:11;;;;;;;2.77;2.30;;;3.30;99.90;;;;;;5010049;28;20188;-78
2022/12/27 06:49:37;;;;;;;2.47;2.27;;;3.50;99.90;;;;;;5005925;28;20199;-79
2022/12/27 06:52:02;;;;;;;2.77;2.17;;;3.40;99.90;;;;;;5008981;28;20294;-79
2022/12/27 06:54:28;;;;;;;2.23;2.03;;;3.40;99.90;;;;;;5008014;28;20194;-78
2022/12/27 06:56:55;;;;;;;2.10;1.90;;;3.40;99.90;;;;;;5010037;28;20184;-78
2022/12/27 06:59:20;;;;;;;4.15;2.33;;;3.70;99.90;;;;;;5013154;28;20230;-78
2022/12/27 07:01:46;;;;;;;5.43;2.47;;;3.40;99.90;;;;;;5013386;28;20701;-79
2022/12/27 07:04:11;;;;;;;2.97;2.70;;;3.60;99.90;;;;;;5009691;28;20293;-78
2022/12/27 07:06:37;;;;;;;5.10;3.60;;;3.20;99.90;;;;;;5014536;28;20196;-79
2022/12/27 07:09:03;;;;;;;2.43;2.23;;;3.30;99.90;;;;;;5009611;28;20189;-79
2022/12/27 07:11:33;;;;;;;3.50;3.20;;;3.40;99.90;;;;;;5013513;28;20701;-80
2022/12/27 07:13:58;;;;;;;3.35;2.00;;;3.60;99.90;;;;;;5018267;28;20196;-78
2022/12/27 07:16:26;;;;;;;1.77;1.60;;;3.20;99.90;;;;;;5013431;28;20202;-78
2022/12/27 07:18:53;;;;;;;4.20;2.30;;;3.30;99.90;;;;;;5011499;28;20202;-78
2022/12/27 07:21:21;;;;;;;3.67;2.15;;;3.10;99.90;;;;;;5013525;28;20676;-79
2022/12/27 07:23:48;;;;;;;2.15;1.95;;;3.10;99.90;;;;;;5003445;28;21180;-79
2022/12/27 07:26:16;;;;;;;3.22;1.92;;;3.10;99.90;;;;;;5012911;28;20191;-79
2022/12/27 07:28:42;;;;;;;3.75;2.13;;;3.30;99.90;;;;;;5013533;28;20206;-79
2022/12/27 07:31:14;;;;;;;2.50;2.17;;;3.20;99.90;;;;;;5019064;28;20319;-79
2022/12/27 07:33:40;;;;;;;4.38;3.42;;;3.20;99.90;;;;;;5003277;28;20660;-79
2022/12/27 07:36:11;;;;;;;2.92;1.90;;;3.40;99.90;;;;;;5013092;28;20196;-79
2022/12/27 07:38:36;;;;;;;2.25;2.15;;;3.40;99.90;;;;;;5017374;28;20182;-79
2022/12/27 07:41:02;;;;;;;4.50;2.77;;;3.40;99.90;;;;;;5014282;28;20218;-79
2022/12/27 07:43:29;;;;;;;4.63;2.60;;;3.40;99.90;;;;;;5014062;28;20200;-79
2022/12/27 07:46:05;;;;;;;2.28;2.08;;;3.70;99.90;;;;;;5012965;28;20238;-79
2022/12/27 07:48:30;;;;;;;3.38;2.60;;;3.30;99.90;;;;;;5012144;28;20593;-79
2022/12/27 07:50:56;;;;;;;5.23;3.40;;;3.30;99.90;;;;;;5018959;28;20177;-79
2022/12/27 07:53:21;;;;;;;2.90;2.70;;;3.90;99.90;;;;;;5013139;28;20215;-79
2022/12/27 07:55:47;;;;;;;3.93;3.00;;;3.40;99.90;;;;;;5010151;28;20670;-79
2022/12/27 07:58:13;;;;;;;3.13;2.00;;;3.50;99.90;;;;;;5016354;28;20195;-79
2022/12/27 08:00:39;;;;;;;7.13;3.50;;;4.00;99.90;;;;;;5012667;28;20438;-80
2022/12/27 08:03:04;;;;;;;5.70;2.30;;;3.50;99.90;;;;;;5009995;28;20489;-79
2022/12/27 08:05:30;;;;;;;3.10;2.67;;;3.60;99.90;;;;;;5005610;28;20183;-80
2022/12/27 08:08:00;;;;;;;2.80;2.47;;;3.60;99.90;;;;;;5009460;28;22299;-78
2022/12/27 08:10:25;;;;;;;2.72;2.53;;;3.70;99.90;;;;;;5002318;28;20231;-80
2022/12/27 08:12:51;;;;;;;2.87;2.67;;;3.70;99.90;;;;;;5012369;28;20643;-78
2022/12/27 08:15:16;;;;;;;5.53;2.63;;;3.80;99.90;;;;;;5008955;28;20195;-79
2022/12/27 08:17:42;;;;;;;2.77;2.43;;;3.80;99.90;;;;;;5012026;28;20187;-79
2022/12/27 08:20:13;;;;;;;3.30;2.57;;;3.90;99.90;;;;;;5012542;28;20553;-79
2022/12/27 08:22:38;;;;;;;4.20;2.90;;;3.70;99.90;;;;;;5009945;28;20208;-79
2022/12/27 08:25:05;;;;;;;3.43;2.33;;;3.90;99.90;;;;;;5015182;28;20188;-80
2022/12/27 08:27:30;;;;;;;4.43;3.05;;;3.70;99.90;;;;;;5013742;28;20226;-79
2022/12/27 08:29:56;;;;;;;4.33;2.63;;;4.40;99.90;;;;;;5012217;28;20224;-79
2022/12/27 08:32:21;;;;;;;4.13;3.73;;;3.80;99.90;;;;;;5017718;28;20215;-79
2022/12/27 08:34:47;;;;;;;4.93;3.50;;;4.00;99.90;;;;;;5009689;28;20191;-79
2022/12/27 08:37:14;;;;;;;4.17;3.77;;;4.10;99.90;;;;;;5011544;28;20595;-80
2022/12/27 08:39:40;;;;;;;3.95;2.67;;;3.90;99.90;;;;;;5009347;28;20291;-78
2022/12/27 08:42:06;;;;;;;4.57;3.25;;;3.90;99.90;;;;;;5011989;28;20208;-78
2022/12/27 08:44:31;;;;;;;8.30;2.90;;;4.00;99.90;;;;;;5012977;28;20187;-80
2022/12/27 08:46:58;;;;;;;2.93;2.73;;;4.20;99.90;;;;;;5010876;28;20615;-79
2022/12/27 08:49:23;;;;;;;4.13;3.70;;;4.70;99.90;;;;;;5009690;28;20595;-80
2022/12/27 08:51:49;;;;;;;4.37;3.47;;;4.50;99.90;;;;;;5012034;28;20216;-79
2022/12/27 08:54:15;;;;;;;3.17;2.10;;;4.50;99.90;;;;;;5011126;28;20676;-79
2022/12/27 08:56:40;;;;;;;3.33;3.03;;;4.80;99.90;;;;;;5011510;28;20553;-80
2022/12/27 08:59:06;;;;;;;4.00;2.60;;;4.70;99.90;;;;;;5011916;28;20245;-78
2022/12/27 09:01:31;;;;;;;2.93;2.57;;;5.10;99.90;;;;;;5011298;28;20225;-78
2022/12/27 09:03:57;;;;;;;3.80;2.80;;;4.90;99.90;;;;;;5010692;28;20216;-78
2022/12/27 09:06:24;;;;;;;2.53;2.33;;;5.00;99.90;;;;;;5020948;28;20186;-78
2022/12/27 09:08:51;;;;;;;3.35;2.85;;;5.60;99.90;;;;;;5010793;28;20246;-77
2022/12/27 09:11:25;;;;;;;7.30;3.60;;;5.60;99.90;;;;;;5010183;28;20931;-77
2022/12/27 09:13:52;;;;;;;4.65;3.22;;;5.60;99.90;;;;;;5011842;28;20654;-79
2022/12/27 09:16:20;;;;;;;3.90;3.13;;;5.80;99.90;;;;;;5010889;28;20175;-77
2022/12/27 09:18:49;;;;;;;3.85;2.97;;;5.60;99.90;;;;;;5008066;28;20198;-79
2022/12/27 09:21:15;;;;;;;2.53;2.05;;;6.20;99.90;;;;;;5018529;28;20214;-78
2022/12/27 09:23:41;;;;;;;3.55;2.10;;;6.00;99.90;;;;;;5015379;28;20214;-77
2022/12/27 09:26:09;;;;;;;2.87;1.97;;;6.70;99.90;;;;;;5008616;28;20558;-78
2022/12/27 09:28:36;;;;;;;3.58;2.03;;;6.00;99.90;;;;;;5010270;28;20182;-78
2022/12/27 09:31:01;;;;;;;3.15;1.63;;;6.00;99.90;;;;;;5011254;28;20295;-79
2022/12/27 09:33:28;;;;;;;2.70;1.70;;;6.20;99.90;;;;;;5008417;28;20337;-79
2022/12/27 09:36:19;;;;;;;3.15;1.67;;;6.50;99.90;;;;;;5013965;28;20190;-78
2022/12/27 09:38:45;;;;;;;1.95;1.65;;;6.80;99.90;;;;;;5003036;28;20199;-78
2022/12/27 09:41:39;;;;;;;1.97;1.50;;;6.90;99.90;;;;;;5006484;28;20938;-79
2022/12/27 09:44:12;;;;;;;1.85;1.63;;;7.10;99.90;;;;;;5010843;28;20210;-78
2022/12/27 09:46:58;;;;;;;2.17;1.90;;;7.30;99.90;;;;;;5005606;28;20664;-79
2022/12/27 09:49:32;;;;;;;3.80;1.90;;;7.30;99.90;;;;;;5011656;28;20187;-78
2022/12/27 09:52:13;;;;;;;4.40;2.25;;;7.30;99.90;;;;;;5010786;28;20206;-78
2022/12/27 09:55:07;;;;;;;3.30;2.03;;;7.30;99.90;;;;;;5007324;28;20202;-79
2022/12/27 09:57:37;;;;;;;2.00;1.67;;;7.60;99.90;;;;;;5007444;28;20190;-78
2022/12/27 10:00:13;;;;;;;2.25;1.52;;;7.40;99.90;;;;;;5007984;28;20179;-79
2022/12/27 10:02:39;;;;;;;3.72;1.63;;;7.90;99.90;;;;;;5020915;28;20331;-79
2022/12/27 10:05:28;;;;;;;2.47;1.63;;;7.90;99.90;;;;;;5013573;28;20606;-79
2022/12/27 10:08:09;;;;;;;1.98;1.40;;;8.10;99.90;;;;;;5005240;28;20194;-79
2022/12/27 10:10:49;;;;;;;1.75;1.63;;;8.20;99.90;;;;;;5013714;28;20185;-78
2022/12/27 10:13:41;;;;;;;2.83;2.22;;;8.40;99.90;;;;;;5010035;28;20246;-78
2022/12/27 10:16:31;;;;;;;2.20;1.38;;;8.30;99.90;;;;;;5005534;28;20257;-78
2022/12/27 10:19:09;;;;;;;1.80;1.70;;;8.20;99.90;;;;;;5003765;28;20191;-79
2022/12/27 10:21:41;;;;;;;5.10;2.38;;;8.90;99.90;;;;;;5011561;28;20222;-79
2022/12/27 10:24:22;;;;;;;4.22;1.80;;;9.10;99.70;;;;;;5005690;28;20300;-79
2022/12/27 10:26:49;;;;;;;2.33;1.20;;;9.40;99.10;;;;;;5005702;28;20601;-79
2022/12/27 10:29:29;;;;;;;1.50;1.30;;;10.00;97.40;;;;;;5008279;28;20185;-79
2022/12/27 10:31:54;;;;;;;2.03;1.35;;;10.60;96.70;;;;;;5010756;28;20696;-80
2022/12/27 10:34:23;;;;;;;2.40;1.83;;;10.70;95.90;;;;;;5012140;28;20199;-79
2022/12/27 10:36:50;;;;;;;1.67;1.35;;;11.10;95.20;;;;;;5013653;28;20184;-80
2022/12/27 10:39:18;;;;;;;3.20;1.85;;;11.10;94.30;;;;;;5009510;28;20189;-77
2022/12/27 10:42:19;;;;;;;1.52;1.42;;;11.30;94.40;;;;;;5012608;28;20581;-79
2022/12/27 10:44:45;;;;;;;1.60;1.50;;;11.50;94.10;;;;;;5004465;28;20241;-79
2022/12/27 10:47:10;;;;;;;1.77;1.60;;;11.60;93.20;;;;;;5014095;28;20183;-79
2022/12/27 10:49:38;;;;;;;2.80;1.60;;;11.80;93.10;;;;;;5012858;28;20179;-78
2022/12/27 10:52:24;;;;;;;2.83;1.52;;;12.20;92.90;;;;;;5014810;28;20195;-79
2022/12/27 10:54:52;;;;;;;1.90;1.20;;;12.60;92.20;;;;;;5010891;28;20207;-78
2022/12/27 10:57:28;;;;;;;1.92;1.75;;;12.90;90.50;;;;;;5013658;28;20651;-79
2022/12/27 11:00:16;;;;;;;1.42;1.33;;;12.90;90.50;;;;;;5013708;28;20233;-79
2022/12/27 11:02:56;;;;;;;3.05;1.80;;;12.90;90.90;;;;;;5012502;28;20229;-78
2022/12/27 11:05:27;;;;;;;2.92;1.33;;;12.80;91.40;;;;;;5008251;28;20205;-78
2022/12/27 11:07:53;;;;;;;1.30;1.10;;;12.30;90.30;;;;;;5013394;28;20183;-79
2022/12/27 11:10:22;;;;;;;2.35;1.75;;;12.70;90.60;;;;;;5012663;28;20690;-80
2022/12/27 11:12:56;;;;;;;2.83;1.38;;;12.70;90.00;;;;;;5019088;28;20264;-79
2022/12/27 11:15:23;;;;;;;2.38;1.45;;;12.70;89.80;;;;;;5024843;28;20268;-78
2022/12/27 11:17:55;;;;;;;2.65;1.48;;;12.80;90.30;;;;;;5012902;28;20270;-80
2022/12/27 11:20:25;;;;;;;2.15;1.60;;;12.40;90.60;;;;;;5011618;28;20210;-78
2022/12/27 11:23:07;;;;;;;4.07;1.48;;;12.30;90.40;;;;;;5014403;28;20226;-80
2022/12/27 11:25:34;;;;;;;1.50;1.40;;;12.10;90.60;;;;;;5008430;28;20177;-79
2022/12/27 11:28:16;;;;;;;2.05;1.15;;;11.20;90.90;;;;;;5006592;28;20197;-78
2022/12/27 11:30:54;;;;;;;4.20;1.50;;;11.20;91.90;;;;;;5013107;28;20226;-79
2022/12/27 11:33:30;;;;;;;2.03;1.20;;;10.90;92.30;;;;;;5010849;28;20193;-79
2022/12/27 11:35:58;;;;;;;1.20;1.10;;;10.90;92.30;;;;;;5015030;28;20190;-80
2022/12/27 11:38:32;;;;;;;1.20;1.10;;;11.20;92.70;;;;;;5020095;28;20185;-79
2022/12/27 11:41:08;;;;;;;2.60;1.23;;;10.30;93.30;;;;;;5013310;28;20195;-80
2022/12/27 11:43:49;;;;;;;1.75;1.00;;;10.50;94.10;;;;;;5013051;28;20288;-80
2022/12/27 11:46:23;;;;;;;3.00;1.90;;;10.60;93.80;;;;;;5009538;28;20609;-78
2022/12/27 11:48:55;;;;;;;2.17;1.40;;;10.40;93.90;;;;;;5007727;28;20585;-79
2022/12/27 11:51:36;;;;;;;2.95;1.20;;;10.80;94.50;;;;;;5006908;28;20241;-79
2022/12/27 11:54:47;;;;;;;2.30;1.05;;;10.50;94.00;;;;;;5008279;28;20664;-78
2022/12/27 11:57:12;;;;;;;1.83;1.30;;;10.20;93.70;;;;;;5018264;28;20288;-80
2022/12/27 12:00:06;;;;;;;1.93;1.23;;;10.70;93.30;;;;;;5010453;28;20281;-79
2022/12/27 12:02:57;;;;;;;2.00;1.73;;;10.60;93.10;;;;;;5012232;28;20625;-79
2022/12/27 12:05:50;;;;;;;3.40;2.67;;;10.50;93.80;;;;;;5009037;28;20181;-80
2022/12/27 12:08:28;;;;;;;1.58;1.10;;;10.70;93.60;;;;;;5012558;28;20193;-80
2022/12/27 12:11:08;;;;;;;1.80;1.10;;;11.00;92.80;;;;;;5006841;28;20180;-80
2022/12/27 12:13:52;;;;;;;2.28;1.40;;;11.20;93.20;;;;;;5014007;28;20548;-78
2022/12/27 12:16:36;;;;;;;2.75;1.15;;;11.20;93.30;;;;;;5013704;28;20828;-79
2022/12/27 12:19:26;;;;;;;2.95;1.70;;;11.10;92.50;;;;;;5005677;28;20736;-79
2022/12/27 12:22:13;;;;;;;3.58;2.00;;;11.00;92.70;;;;;;5012496;28;20694;-79
2022/12/27 12:25:09;;;;;;;2.97;1.23;;;11.10;93.50;;;;;;5007725;28;20213;-79
2022/12/27 12:28:05;;;;;;;1.27;1.10;;;11.00;93.10;;;;;;5012908;28;20190;-79
2022/12/27 12:31:16;;;;;;;2.72;1.52;;;10.50;93.40;;;;;;5006996;28;20649;-79
2022/12/27 12:33:55;;;;;;;1.00;0.80;;;10.40;94.30;;;;;;5008327;28;20238;-79
2022/12/27 12:36:57;;;;;;;2.80;1.13;;;10.10;94.00;;;;;;5011796;28;20183;-78
2022/12/27 12:39:43;;;;;;;2.45;1.55;;;10.30;94.80;;;;;;4998041;28;20253;-80
2022/12/27 12:42:41;;;;;;;3.92;1.83;;;10.10;94.70;;;;;;5011994;28;20632;-79
2022/12/27 12:45:31;;;;;;;3.05;1.80;;;10.00;95.20;;;;;;5007024;28;20196;-80
2022/12/27 12:48:21;;;;;;;2.08;1.45;;;10.30;95.20;;;;;;5010276;28;20195;-80
2022/12/27 12:51:05;;;;;;;3.45;1.40;;;10.10;94.90;;;;;;5005554;28;20189;-79
2022/12/27 12:53:39;;;;;;;3.05;1.40;;;10.30;95.40;;;;;;5010652;28;20180;-79
2022/12/27 12:56:23;;;;;;;6.25;1.60;;;10.40;94.90;;;;;;5013897;28;20194;-80
2022/12/27 12:59:17;;;;;;;3.05;1.95;;;10.80;95.00;;;;;;5006841;28;20185;-79
2022/12/27 13:01:52;;;;;;;1.98;1.42;;;10.80;94.90;;;;;;5012267;28;20225;-79
2022/12/27 13:04:54;;;;;;;2.53;1.50;;;10.80;94.20;;;;;;5005778;28;20237;-79
2022/12/27 13:07:43;;;;;;;5.07;1.45;;;10.60;94.40;;;;;;5010601;28;20653;-79
2022/12/27 13:10:28;;;;;;;2.30;1.80;;;10.40;94.90;;;;;;5001175;28;20200;-79
2022/12/27 13:12:57;;;;;;;2.33;1.52;;;10.30;95.10;;;;;;5010352;28;20677;-78
2022/12/27 13:15:38;;;;;;;3.70;1.70;;;10.40;94.60;;;;;;5016943;28;20185;-79
2022/12/27 13:18:17;;;;;;;3.13;1.90;;;10.40;95.50;;;;;;5004004;28;20189;-80
2022/12/27 13:21:00;;;;;;;4.00;1.75;;;10.50;95.40;;;;;;5007450;28;20211;-80
2022/12/27 13:23:33;;;;;;;1.88;1.50;;;10.30;95.50;;;;;;5011545;28;20216;-79
2022/12/27 13:26:13;;;;;;;3.45;1.50;;;10.50;95.90;;;;;;5001287;28;20183;-79
2022/12/27 13:29:05;;;;;;;2.38;1.60;;;10.10;95.80;;;;;;5011176;28;20186;-80
2022/12/27 13:32:03;;;;;;;3.45;1.42;;;10.00;95.20;;;;;;5005481;28;20200;-79
2022/12/27 13:35:05;;;;;;;1.45;1.33;;;9.80;96.30;;;;;;5004371;28;20204;-80
2022/12/27 13:38:11;;;;;;;3.88;1.70;;;9.90;96.60;;;;;;5016743;28;20655;-81
2022/12/27 13:41:31;;;;;;;1.88;1.70;;;9.60;96.80;;;;;;5001267;28;20238;-80
2022/12/27 13:44:15;;;;;;;2.20;1.38;;;9.70;96.90;;;;;;4978218;28;20230;-79
2022/12/27 13:46:46;;;;;;;3.20;1.67;;;9.50;97.00;;;;;;5010346;28;20187;-79
2022/12/27 13:49:27;;;;;;;1.40;1.20;;;9.50;97.60;;;;;;5006981;28;20205;-80
2022/12/27 13:52:01;;;;;;;2.38;1.52;;;9.60;98.30;;;;;;5010564;28;20207;-80
2022/12/27 13:55:04;;;;;;;3.88;2.00;;;9.30;98.30;;;;;;5006710;28;20644;-80
2022/12/27 13:57:48;;;;;;;1.95;1.27;;;9.20;98.00;;;;;;5008136;28;20272;-79
2022/12/27 14:00:19;;;;;;;3.05;1.42;;;9.30;97.80;;;;;;5002722;28;20187;-79
2022/12/27 14:03:06;;;;;;;2.85;1.80;;;9.40;97.60;;;;;;5013919;28;20763;-79
2022/12/27 14:05:55;;;;;;;1.65;1.13;;;9.40;97.90;;;;;;5003790;28;20605;-80
2022/12/27 14:09:05;;;;;;;2.67;1.17;;;9.60;97.90;;;;;;5009493;28;20659;-79
2022/12/27 14:11:35;;;;;;;4.20;1.67;;;9.30;98.10;;;;;;5021114;28;20214;-80
2022/12/27 14:14:03;;;;;;;1.42;1.30;;;9.00;98.20;;;;;;5012585;28;20278;-79
2022/12/27 14:16:39;;;;;;;2.85;1.42;;;9.20;98.90;;;;;;5009420;28;20956;-80
2022/12/27 14:19:05;;;;;;;2.83;1.40;;;9.30;98.60;;;;;;5005814;28;20273;-78
2022/12/27 14:21:51;;;;;;;3.17;1.37;;;9.20;98.70;;;;;;5010443;28;20637;-78
2022/12/27 14:24:36;;;;;;;2.53;1.60;;;9.10;97.90;;;;;;5005676;28;20290;-79
2022/12/27 14:27:27;;;;;;;2.83;1.63;;;9.00;98.30;;;;;;5009926;28;20192;-79
2022/12/27 14:30:17;;;;;;;5.68;1.65;;;9.10;98.40;;;;;;5010831;28;20730;-79
2022/12/27 14:32:48;;;;;;;3.75;1.40;;;9.00;98.30;;;;;;5007027;28;20222;-79
2022/12/27 14:35:32;;;;;;;1.95;1.38;;;8.80;99.60;;;;;;5007260;28;20285;-80
2022/12/27 14:38:35;;;;;;;5.20;1.48;;;8.30;99.00;;;;;;5009533;28;20191;-79
2022/12/27 14:41:28;;;;;;;1.55;1.42;;;8.80;99.90;;;;;;5009710;28;20222;-79
2022/12/27 14:44:30;;;;;;;3.42;1.48;;;8.30;99.60;;;;;;5007224;28;20691;-79
2022/12/27 14:47:19;;;;;;;2.42;1.17;;;8.60;99.10;;;;;;4997705;28;20210;-79
2022/12/27 14:50:16;;;;;;;2.08;1.20;;;8.50;99.80;;;;;;5010015;28;20237;-79
2022/12/27 14:53:00;;;;;;;2.97;2.00;;;8.50;99.10;;;;;;5008318;28;20214;-79
2022/12/27 14:55:37;;;;;;;2.58;1.20;;;8.80;99.80;;;;;;5000487;28;20187;-79
2022/12/27 14:58:24;;;;;;;4.72;1.92;;;8.50;99.20;;;;;;5009456;28;20182;-80
2022/12/27 15:01:00;;;;;;;2.25;1.38;;;8.40;98.90;;;;;;5009714;28;20195;-79